• Join FlightAware (Why Join?)
  • Login
  • US Flag 
12:53AM EDT


 

Airport Tracker/Info


-or-


 

Live Flight TrackerFlight Track Log ✈ N123AD ✈ 25-Aug-2013 ✈ KSOP - KDXR

Flight Track Log - Related Links

Times and Time Zones

All times are in EDT time to prevent confusion due to time zone crossing. See the N123AD flight status page for this flight to view local times or setup timezone preferences in your user account.

Time Position Orientation Groundspeed Altitude Reporting Facility
EDT Latitude Longitude Course Direction KTS MPH feet Rate Location/Type
02:31PM 35.3931 -79.3094 14° North 195 224 9,300  Level Washington Center
02:32PM 35.4394 -79.2911 18° North 195 224 10,000 1,260 Climbing Washington Center
02:33PM 35.4831 -79.2294 49° Northeast 220 253 11,800 2,160 Climbing Washington Center
02:34PM 35.5267 -79.1703 48° Northeast 220 253 14,400 2,220 Climbing Washington Center
02:35PM 35.3816 -79.5055 19° North  Level FlightAware Approximate
02:35PM 35.5572 -79.1308 46° Northeast 188 216 16,300  Level Washington Center
02:36PM 35.4504 -79.4782 14° North  Level FlightAware Approximate
02:36PM 35.5897 -79.0836 50° Northeast 168 193 18,000  Level Washington Center
02:37PM 35.5206 -79.4572 14° North  Level FlightAware Approximate
02:37PM 35.6203 -79.0414 48° Northeast 168 193 19,100  Level Washington Center
02:38PM 35.6592 -78.9972 43° Northeast 168 193 20,100 960 Climbing Washington Center
02:39PM 35.7061 -78.9531 37° Northeast 181 208 21,100 960 Climbing Washington Center
02:40PM 35.7556 -78.9067 37° Northeast 203 234 22,100 900 Climbing Washington Center
02:41PM 35.8069 -78.8575 38° Northeast 222 255 23,000 600 Climbing Washington Center
02:42PM 35.8669 -78.8011 37° Northeast 241 277 23,400 780 Climbing Washington Center
02:43PM 35.9161 -78.7569 36° Northeast 256 295 24,600 1,320 Climbing Washington Center
02:44PM 35.9739 -78.7000 39° Northeast 251 289 26,100 1,500 Climbing Washington Center
02:45PM 36.0208 -78.6531 39° Northeast 240 276 27,600 900 Climbing Washington Center
02:46PM 36.0744 -78.6039 37° Northeast 231 266 28,000 180 Climbing Washington Center
02:47PM 36.1300 -78.5494 38° Northeast 236 272 28,000 180 Level Washington Center
02:48PM 36.1900 -78.4900 39° Northeast 257 296 28,400 660 Climbing Washington Center
02:49PM 36.2517 -78.4356 35° Northeast 262 302 29,400 900 Climbing Washington Center
02:50PM 36.3050 -78.3833 38° Northeast 256 295 30,300 900 Climbing Washington Center
02:51PM 36.3583 -78.3311 38° Northeast 250 288 31,300 960 Climbing Washington Center
02:52PM 36.4097 -78.2811 38° Northeast 245 282 32,300 840 Climbing Washington Center
02:53PM 36.4608 -78.2314 38° Northeast 240 276 33,000 300 Climbing Washington Center
02:54PM 36.5142 -78.1789 38° Northeast 235 270 33,000  Level Washington Center
02:55PM 36.5681 -78.1006 49° Northeast 251 289 33,000 420 Level Washington Center
02:56PM 36.6133 -78.0217 54° Northeast 262 302 33,900 900 Climbing Washington Center
02:57PM 36.6567 -77.9506 53° Northeast 267 307 34,900 840 Climbing Washington Center
02:58PM 36.6975 -77.8844 52° Northeast 249 287 35,700 600 Climbing Washington Center
02:59PM 36.7425 -77.8261 46° Northeast 237 273 36,200 480 Climbing Washington Center
03:00PM 36.7956 -77.7783 36° Northeast 237 273 36,700 360 Climbing Washington Center
03:01PM 36.8506 -77.7306 35° Northeast 232 267 37,000 120 Climbing Washington Center
03:02PM 36.9014 -77.6853 35° Northeast 232 267 37,000  Level Washington Center
03:03PM 36.9564 -77.6347 36° Northeast 232 267 37,000  Level Washington Center
03:04PM 37.0094 -77.5842 37° Northeast 232 267 37,000  Level Washington Center
03:05PM 37.0644 -77.5361 35° Northeast 232 267 37,000  Level Washington Center
03:06PM 37.1217 -77.4856 35° Northeast 238 274 37,000  Level Washington Center
03:07PM 37.1789 -77.4322 37° Northeast 243 280 37,000  Level Washington Center
03:08PM 37.2339 -77.3839 35° Northeast 243 280 37,000  Level Washington Center
03:09PM 37.2886 -77.3356 35° Northeast 243 280 37,000  Level Washington Center
03:10PM 37.3458 -77.2847 35° Northeast 243 280 37,000  Level Washington Center
03:11PM 37.4028 -77.2336 35° Northeast 243 280 37,000  Level Washington Center
03:12PM 37.4619 -77.1825 34° Northeast 243 280 37,000  Level Washington Center
03:13PM 37.5189 -77.1289 37° Northeast 253 291 37,000  Level Washington Center
03:14PM 37.5739 -77.0750 38° Northeast 253 291 37,000  Level Washington Center
03:15PM 37.6267 -77.0208 39° Northeast 253 291 37,000  Level Washington Center
03:16PM 37.6814 -76.9694 37° Northeast 253 291 37,000  Level Washington Center
03:17PM 37.7342 -76.9153 39° Northeast 253 291 37,000  Level Washington Center
03:18PM 37.7786 -76.8503 49° Northeast 243 280 37,000  Level Washington Center
03:19PM 37.8233 -76.7828 50° Northeast 243 280 37,000  Level Washington Center
03:20PM 37.8675 -76.7175 49° Northeast 243 280 37,000  Level Washington Center
03:21PM 37.9100 -76.6525 50° Northeast 238 274 37,000  Level Washington Center
03:22PM 37.9522 -76.5844 52° Northeast 238 274 37,000  Level Washington Center
03:23PM 37.9967 -76.5167 50° Northeast 238 274 37,000  Level Washington Center
03:24PM 38.0408 -76.4514 49° Northeast 238 274 37,000  Level Washington Center
03:25PM 38.0831 -76.3831 52° Northeast 243 280 37,000  Level Washington Center
03:26PM 38.1292 -76.3150 49° Northeast 243 280 37,000  Level Washington Center
03:27PM 38.1692 -76.2547 50° Northeast 248 285 37,000  Level Washington Center
03:28PM 38.2114 -76.1864 52° Northeast 253 291 37,000  Level Washington Center
03:29PM 38.2556 -76.1181 51° Northeast 253 291 37,000  Level Washington Center
03:30PM 38.2994 -76.0519 50° Northeast 253 291 37,000  Level Washington Center
03:31PM 38.3414 -75.9836 52° Northeast 248 285 37,000  Level Washington Center
03:32PM 38.3853 -75.9175 50° Northeast 248 285 37,000  Level Washington Center
03:33PM 38.4294 -75.8514 50° Northeast 248 285 37,000  Level Washington Center
03:34PM 38.4733 -75.7853 50° Northeast 248 285 37,000  Level Washington Center
03:35PM 38.5192 -75.7192 48° Northeast 248 285 37,000  Level Washington Center
03:36PM 38.5608 -75.6500 52° Northeast 248 285 37,000  Level Washington Center
03:37PM 38.6028 -75.5836 51° Northeast 248 285 37,000  Level Washington Center
03:38PM 38.6444 -75.5119 53° Northeast 248 285 37,000  Level Washington Center
03:39PM 38.6881 -75.4508 48° Northeast 248 285 37,000  Level Washington Center
03:40PM 38.7297 -75.3814 52° Northeast 248 285 37,000 -360 Level Washington Center
03:41PM 38.7753 -75.3119 50° Northeast 248 285 36,300 -720 Descending Washington Center
03:42PM 38.8253 -75.2347 50° Northeast 259 298 35,600 -720 Descending Washington Center
03:43PM 38.8728 -75.1597 51° Northeast 264 304 34,900 -600 Descending Washington Center
03:44PM 38.9206 -75.0794 53° Northeast 269 310 34,400 -540 Descending Washington Center
03:45PM 38.9703 -75.0017 51° Northeast 275 316 33,900 -600 Descending Washington Center
03:46PM 39.0197 -74.9236 51° Northeast 282 325 33,200 -720 Descending Washington Center
03:47PM 39.0672 -74.8458 52° Northeast 282 325 32,500 -780 Descending Washington Center
03:48PM 39.1189 -74.7675 50° Northeast 282 325 31,700 -900 Descending Washington Center
03:49PM 39.1725 -74.6839 50° Northeast 282 325 30,800 -1,260 Descending Washington Center
03:51PM 39.2961 -74.4917 50° Northeast 301 346 27,900 -1,500 Descending New York Center
03:52PM 39.3531 -74.4061 49° Northeast 306 352 26,200 -1,800 Descending New York Center
03:53PM 39.4056 -74.3228 51° Northeast 322 371 24,400 -1,800 Descending New York Center
03:54PM 39.4667 -74.2317 49° Northeast 330 380 22,700 -1,620 Descending New York Center
03:55PM 39.5094 -74.1236 63° Northeast 330 380 21,200 -1,200 Descending New York Center
03:56PM 39.5478 -74.0150 65° Northeast 330 380 20,300 -1,500 Descending New York Center
03:57PM 39.5969 -73.8986 61° Northeast 330 380 18,200 -1,200 Descending New York Center
03:58PM 39.6286 -73.8058 66° East 317 365 18,000 -120 Descending New York Center
03:59PM 39.6542 -73.6964 73° East 312 359 18,000  Level New York Center
04:00PM 39.6903 -73.5872 67° East 312 359 18,000 -300 Level New York Center
04:01PM 39.7447 -73.4950 52° Northeast 317 365 17,500 -300 Descending New York Center
04:02PM 39.8286 -73.4739 11° North 283 326 17,500  Level New York Center
04:03PM 39.9161 -73.4719 North 283 326 17,500  Level New York Center
04:04PM 40.0036 -73.4725 360° North 300 345 17,500  Level New York Center
04:05PM 40.1014 -73.4736 360° North 313 360 17,500  Level New York Center
04:06PM 40.1786 -73.4742 360° North 308 354 17,500  Level New York Center
04:07PM 40.2767 -73.4750 360° North 308 354 17,500  Level New York Center
04:08PM 40.3536 -73.4756 360° North 308 354 17,500  Level New York Center
04:09PM 40.4517 -73.4739 North 308 354 17,500 -180 Level New York Center
04:10PM 40.5308 -73.4769 358° North 308 354 17,200 -1,140 Descending New York Center
04:11PM 40.6244 -73.4808 358° North 308 354 15,300 -1,740 Descending New York Center
04:12PM 40.7078 -73.4786 North 303 349 13,800 -1,560 Descending New York Center
04:13PM 40.7889 -73.4792 360° North 298 343 12,200 -1,440 Descending New York Center
04:14PM 40.8536 -73.4817 358° North 293 337 11,000 -1,500 Descending New York Center
04:15PM 40.9494 -73.4828 359° North 283 326 9,200 -1,620 Descending New York Center
04:16PM 41.0264 -73.4803 North 278 320 7,800 -1,500 Descending New York Center
04:17PM 41.1014 -73.4806 360° North 267 307 6,200 -1,440 Descending New York Center
04:19PM 41.2000 -73.4500 13° North 262 302 4,500 -1,380 Descending New York TRACON
04:20PM 41.2667 -73.4333 11° North 261 300 3,100 -1,200 Descending New York TRACON
04:21PM 41.3333 -73.4167 11° North 204 235 2,200 -840 Descending New York TRACON
04:22PM 41.3667 -73.4333 339° North 143 165 1,500 -480 Descending New York TRACON
04:23PM 41.3833 -73.4667 304° West 134 154 1,300 -240 Descending New York TRACON
04:25PM 41.3667 -73.4667 180° South  Level FlightAware Approximate
04:32PM 41.3715 -73.4822 180° South  Level Estimated
04:33PM 41.3715 -73.4822 180° South  Level Estimated
04:34PM 41.3715 -73.4822 180° South  Level Estimated